^^
Paulen-Weather Station Historical Data
Daily Summary for March 14, 2022 Units:  Metric    English   Both
Daily Weekly Monthly Yearly Custom
  High: Low: Average:
Temperature: 6 °C 3 °C 4.7 °C
Dew Point: 3 °C 0 °C 1.4 °C
Humidity: 83% 74% 79%
Wind Speed: 40km/h 11km/h 23.6km/h
Wind Gust: 33km/h - -
Wind- - NNE
Pressure: 1025.84 hPa 1023.6 hPa -
Precipitation: 0 mm    
Historical Graphs
 
 
Tabular Data for March 14, 2022
Time Temperature Dew Point Pressure Wind Wind Speed Wind Gust Humidity Rainfall Rate (Hourly) solar
00:04 5 °C 2 °C 1023.87 hPa NNE 25 km/h 20 km/h 77% 0 mm 0 W/m2
00:09 5 °C 2 °C 1023.84 hPa NNE 25 km/h 20 km/h 77% 0 mm 0 W/m2
00:14 5 °C 2 °C 1023.74 hPa NNE 23 km/h 19 km/h 76% 0 mm 0 W/m2
00:19 5 °C 2 °C 1023.74 hPa NNE 22 km/h 18 km/h 76% 0 mm 0 W/m2
00:24 5 °C 1 °C 1023.77 hPa NNE 23 km/h 19 km/h 76% 0 mm 0 W/m2
00:29 5 °C 1 °C 1023.71 hPa NNE 22 km/h 19 km/h 76% 0 mm 0 W/m2
00:34 5 °C 1 °C 1023.74 hPa NNE 26 km/h 23 km/h 76% 0 mm 0 W/m2
00:39 5 °C 1 °C 1023.81 hPa NNE 22 km/h 17 km/h 76% 0 mm 0 W/m2
00:44 5 °C 1 °C 1023.81 hPa NNE 24 km/h 20 km/h 76% 0 mm 0 W/m2
00:49 5 °C 1 °C 1023.74 hPa NNE 21 km/h 19 km/h 76% 0 mm 0 W/m2
00:54 5 °C 1 °C 1023.74 hPa NE 22 km/h 18 km/h 76% 0 mm 0 W/m2
00:59 5 °C 1 °C 1023.71 hPa NNE 22 km/h 18 km/h 76% 0 mm 0 W/m2
01:04 5 °C 1 °C 1023.71 hPa NNE 24 km/h 19 km/h 77% 0 mm 0 W/m2
01:09 5 °C 1 °C 1023.67 hPa NNE 21 km/h 18 km/h 77% 0 mm 0 W/m2
01:14 5 °C 1 °C 1023.67 hPa NNE 20 km/h 18 km/h 77% 0 mm 0 W/m2
01:19 5 °C 1 °C 1023.67 hPa NE 21 km/h 17 km/h 77% 0 mm 0 W/m2
01:24 5 °C 1 °C 1023.71 hPa NNE 22 km/h 19 km/h 77% 0 mm 0 W/m2
01:29 5 °C 1 °C 1023.64 hPa NNE 22 km/h 19 km/h 77% 0 mm 0 W/m2
01:34 5 °C 1 °C 1023.6 hPa NNE 24 km/h 18 km/h 77% 0 mm 0 W/m2
01:39 5 °C 1 °C 1023.6 hPa NNE 21 km/h 15 km/h 78% 0 mm 0 W/m2
01:44 5 °C 1 °C 1023.67 hPa NNE 19 km/h 17 km/h 77% 0 mm 0 W/m2
01:49 5 °C 1 °C 1023.71 hPa NNE 24 km/h 18 km/h 77% 0 mm 0 W/m2
01:54 5 °C 1 °C 1023.71 hPa NE 21 km/h 18 km/h 76% 0 mm 0 W/m2
01:59 5 °C 1 °C 1023.74 hPa NE 21 km/h 18 km/h 76% 0 mm 0 W/m2
02:04 5 °C 1 °C 1023.74 hPa NNE 23 km/h 18 km/h 76% 0 mm 0 W/m2
02:07 5 °C 1 °C 1023.74 hPa NNE 24 km/h 17 km/h 77% 0 mm 0 W/m2
02:19 5 °C 1 °C 1023.71 hPa NNE 20 km/h 19 km/h 78% 0 mm 0 W/m2
02:24 5 °C 1 °C 1023.74 hPa NNE 22 km/h 19 km/h 78% 0 mm 0 W/m2
02:29 5 °C 1 °C 1023.77 hPa NE 23 km/h 19 km/h 78% 0 mm 0 W/m2
02:34 5 °C 1 °C 1023.74 hPa NE 25 km/h 22 km/h 78% 0 mm 0 W/m2
02:39 5 °C 1 °C 1023.77 hPa NNE 23 km/h 19 km/h 79% 0 mm 0 W/m2
02:44 5 °C 1 °C 1023.84 hPa NNE 24 km/h 21 km/h 79% 0 mm 0 W/m2
02:49 5 °C 1 °C 1023.87 hPa NE 23 km/h 21 km/h 79% 0 mm 0 W/m2
02:54 5 °C 1 °C 1023.81 hPa NNE 22 km/h 18 km/h 79% 0 mm 0 W/m2
02:59 5 °C 1 °C 1023.77 hPa NNE 19 km/h 19 km/h 79% 0 mm 0 W/m2
03:04 5 °C 1 °C 1023.81 hPa NNE 20 km/h 18 km/h 80% 0 mm 0 W/m2
03:09 5 °C 1 °C 1023.81 hPa NNE 21 km/h 18 km/h 80% 0 mm 0 W/m2
03:14 5 °C 1 °C 1023.74 hPa NE 22 km/h 18 km/h 79% 0 mm 0 W/m2
03:19 5 °C 1 °C 1023.77 hPa NE 23 km/h 19 km/h 79% 0 mm 0 W/m2
03:24 5 °C 1 °C 1023.77 hPa NNE 21 km/h 18 km/h 79% 0 mm 0 W/m2
03:29 5 °C 1 °C 1023.84 hPa NNE 20 km/h 16 km/h 79% 0 mm 0 W/m2
03:34 4 °C 1 °C 1023.81 hPa NNE 18 km/h 15 km/h 79% 0 mm 0 W/m2
03:39 4 °C 1 °C 1023.71 hPa NNE 17 km/h 15 km/h 79% 0 mm 0 W/m2
03:44 4 °C 1 °C 1023.71 hPa NNE 18 km/h 14 km/h 79% 0 mm 0 W/m2
03:49 4 °C 1 °C 1023.77 hPa NNE 19 km/h 16 km/h 79% 0 mm 0 W/m2
03:54 4 °C 1 °C 1023.77 hPa NNE 21 km/h 16 km/h 80% 0 mm 0 W/m2
03:59 4 °C 1 °C 1023.81 hPa NNE 21 km/h 18 km/h 80% 0 mm 0 W/m2
04:04 4 °C 1 °C 1023.81 hPa NNE 20 km/h 18 km/h 81% 0 mm 0 W/m2
04:09 4 °C 1 °C 1023.87 hPa NNE 19 km/h 16 km/h 81% 0 mm 0 W/m2
04:14 4 °C 1 °C 1023.94 hPa NNE 20 km/h 16 km/h 80% 0 mm 0 W/m2
04:19 4 °C 1 °C 1024.08 hPa NNE 20 km/h 17 km/h 80% 0 mm 0 W/m2
04:24 4 °C 1 °C 1024.21 hPa NNE 21 km/h 16 km/h 80% 0 mm 0 W/m2
04:29 4 °C 1 °C 1024.28 hPa NNE 20 km/h 18 km/h 80% 0 mm 0 W/m2
04:34 4 °C 1 °C 1024.28 hPa NNE 19 km/h 15 km/h 80% 0 mm 0 W/m2
04:39 4 °C 1 °C 1024.25 hPa NNE 18 km/h 17 km/h 80% 0 mm 0 W/m2
04:44 4 °C 1 °C 1024.18 hPa NNE 19 km/h 17 km/h 80% 0 mm 0 W/m2
04:49 4 °C 1 °C 1024.18 hPa NNE 21 km/h 19 km/h 80% 0 mm 0 W/m2
04:54 4 °C 1 °C 1024.18 hPa NNE 21 km/h 19 km/h 80% 0 mm 0 W/m2
04:59 4 °C 1 °C 1024.18 hPa NNE 21 km/h 17 km/h 80% 0 mm 0 W/m2
05:04 4 °C 1 °C 1024.18 hPa NNE 20 km/h 19 km/h 80% 0 mm 0 W/m2
05:09 4 °C 1 °C 1024.15 hPa NNE 22 km/h 20 km/h 81% 0 mm 0 W/m2
05:14 4 °C 1 °C 1024.21 hPa NNE 21 km/h 17 km/h 81% 0 mm 0 W/m2
05:19 4 °C 1 °C 1024.31 hPa NNE 20 km/h 16 km/h 81% 0 mm 0 W/m2
05:24 4 °C 1 °C 1024.35 hPa NNE 18 km/h 14 km/h 81% 0 mm 0 W/m2
05:29 4 °C 1 °C 1024.35 hPa NNE 19 km/h 18 km/h 81% 0 mm 0 W/m2
05:34 4 °C 1 °C 1024.35 hPa NNE 19 km/h 16 km/h 81% 0 mm 0 W/m2
05:39 4 °C 1 °C 1024.42 hPa NNE 19 km/h 17 km/h 81% 0 mm 0 W/m2
05:44 4 °C 1 °C 1024.38 hPa NNE 16 km/h 14 km/h 81% 0 mm 0 W/m2
05:49 4 °C 1 °C 1024.31 hPa NNE 19 km/h 16 km/h 81% 0 mm 0 W/m2
05:54 4 °C 1 °C 1024.28 hPa NNE 22 km/h 18 km/h 81% 0 mm 0 W/m2
05:59 4 °C 1 °C 1024.25 hPa NNE 20 km/h 17 km/h 81% 0 mm 0 W/m2
06:04 4 °C 1 °C 1024.28 hPa NNE 17 km/h 14 km/h 81% 0 mm 0 W/m2
06:09 4 °C 1 °C 1024.28 hPa NNE 19 km/h 17 km/h 82% 0 mm 0 W/m2
06:14 4 °C 1 °C 1024.28 hPa NNE 19 km/h 16 km/h 82% 0 mm 0 W/m2
06:19 4 °C 1 °C 1024.28 hPa NNE 20 km/h 17 km/h 82% 0 mm 0 W/m2
06:24 4 °C 1 °C 1024.28 hPa NNE 19 km/h 17 km/h 82% 0 mm 0 W/m2
06:29 4 °C 1 °C 1024.31 hPa NNE 20 km/h 19 km/h 82% 0 mm 0 W/m2
06:34 4 °C 1 °C 1024.31 hPa NNE 21 km/h 16 km/h 82% 0 mm 0 W/m2
06:39 4 °C 1 °C 1024.31 hPa NNE 22 km/h 19 km/h 82% 0 mm 7 W/m2
06:44 4 °C 1 °C 1024.38 hPa NNE 23 km/h 20 km/h 82% 0 mm 7 W/m2
06:49 4 °C 1 °C 1024.38 hPa NNE 24 km/h 20 km/h 82% 0 mm 9 W/m2
06:54 4 °C 1 °C 1024.52 hPa NE 24 km/h 21 km/h 82% 0 mm 12 W/m2
06:59 4 °C 1 °C 1024.52 hPa NNE 23 km/h 20 km/h 82% 0 mm 16 W/m2
07:04 4 °C 1 °C 1024.55 hPa NNE 23 km/h 18 km/h 82% 0 mm 21 W/m2
07:09 4 °C 1 °C 1024.65 hPa NNE 22 km/h 20 km/h 81% 0 mm 32 W/m2
07:14 4 °C 1 °C 1024.72 hPa NNE 19 km/h 16 km/h 82% 0 mm 37 W/m2
07:19 4 °C 1 °C 1024.72 hPa NNE 22 km/h 19 km/h 82% 0 mm 37 W/m2
07:24 4 °C 1 °C 1024.76 hPa NNE 23 km/h 20 km/h 81% 0 mm 39 W/m2
07:29 4 °C 1 °C 1024.76 hPa NNE 21 km/h 17 km/h 81% 0 mm 32 W/m2
07:34 4 °C 1 °C 1024.72 hPa NNE 21 km/h 18 km/h 82% 0 mm 33 W/m2
07:39 4 °C 1 °C 1024.72 hPa NNE 23 km/h 20 km/h 82% 0 mm 51 W/m2
07:44 4 °C 1 °C 1024.76 hPa NNE 24 km/h 21 km/h 82% 0 mm 65 W/m2
07:49 4 °C 1 °C 1024.82 hPa NNE 25 km/h 21 km/h 82% 0 mm 65 W/m2
07:54 4 °C 1 °C 1024.99 hPa NNE 25 km/h 20 km/h 82% 0 mm 60 W/m2
07:59 4 °C 1 °C 1025.09 hPa NNE 24 km/h 21 km/h 82% 0 mm 53 W/m2
08:04 4 °C 1 °C 1025.13 hPa NNE 25 km/h 20 km/h 82% 0 mm 56 W/m2
08:09 4 °C 2 °C 1025.06 hPa NNE 21 km/h 19 km/h 82% 0 mm 60 W/m2
08:14 4 °C 2 °C 1025.03 hPa NNE 22 km/h 20 km/h 82% 0 mm 67 W/m2
08:19 4 °C 2 °C 1025.03 hPa NNE 22 km/h 20 km/h 83% 0 mm 67 W/m2
08:24 4 °C 2 °C 1024.99 hPa NNE 25 km/h 20 km/h 83% 0 mm 90 W/m2
08:29 4 °C 2 °C 1024.99 hPa NNE 26 km/h 23 km/h 83% 0 mm 88 W/m2
08:34 4 °C 2 °C 1024.99 hPa NNE 24 km/h 21 km/h 83% 0 mm 93 W/m2
08:39 4 °C 2 °C 1024.96 hPa NNE 21 km/h 21 km/h 83% 0 mm 83 W/m2
08:44 4 °C 2 °C 1025.03 hPa NNE 26 km/h 22 km/h 83% 0 mm 97 W/m2
08:49 4 °C 2 °C 1025.03 hPa NNE 26 km/h 20 km/h 83% 0 mm 104 W/m2
08:54 4 °C 2 °C 1025.09 hPa NNE 23 km/h 19 km/h 83% 0 mm 105 W/m2
08:59 5 °C 2 °C 1025.23 hPa NNE 23 km/h 21 km/h 82% 0 mm 107 W/m2
09:04 5 °C 2 °C 1025.33 hPa NNE 26 km/h 23 km/h 82% 0 mm 114 W/m2
09:09 5 °C 2 °C 1025.43 hPa NNE 27 km/h 22 km/h 82% 0 mm 134 W/m2
09:14 5 °C 2 °C 1025.5 hPa NNE 25 km/h 21 km/h 82% 0 mm 155 W/m2
09:19 5 °C 2 °C 1025.5 hPa NNE 27 km/h 24 km/h 82% 0 mm 160 W/m2
09:24 5 °C 2 °C 1025.5 hPa N 26 km/h 24 km/h 82% 0 mm 158 W/m2
09:29 5 °C 2 °C 1025.5 hPa NNE 25 km/h 22 km/h 82% 0 mm 153 W/m2
09:34 5 °C 2 °C 1025.5 hPa NNE 25 km/h 21 km/h 82% 0 mm 163 W/m2
09:39 5 °C 2 °C 1025.47 hPa NNE 27 km/h 26 km/h 82% 0 mm 172 W/m2
09:44 5 °C 2 °C 1025.5 hPa NNE 28 km/h 27 km/h 82% 0 mm 179 W/m2
09:49 5 °C 2 °C 1025.53 hPa NNE 27 km/h 22 km/h 82% 0 mm 218 W/m2
09:54 5 °C 2 °C 1025.47 hPa NNE 28 km/h 23 km/h 81% 0 mm 211 W/m2
09:59 5 °C 2 °C 1025.5 hPa NNE 24 km/h 21 km/h 81% 0 mm 244 W/m2
10:04 5 °C 2 °C 1025.53 hPa NNE 23 km/h 18 km/h 82% 0 mm 332 W/m2
10:09 5 °C 2 °C 1025.53 hPa NNE 28 km/h 21 km/h 82% 0 mm 320 W/m2
10:14 6 °C 3 °C 1025.57 hPa NNE 26 km/h 24 km/h 82% 0 mm 366 W/m2
10:19 6 °C 3 °C 1025.57 hPa NNE 30 km/h 24 km/h 82% 0 mm 380 W/m2
10:24 6 °C 3 °C 1025.57 hPa NNE 34 km/h 30 km/h 81% 0 mm 329 W/m2
10:29 6 °C 3 °C 1025.64 hPa NNE 30 km/h 23 km/h 82% 0 mm 364 W/m2
10:34 6 °C 3 °C 1025.7 hPa NNE 32 km/h 31 km/h 82% 0 mm 362 W/m2
10:39 6 °C 3 °C 1025.7 hPa NNE 38 km/h 32 km/h 81% 0 mm 348 W/m2
10:44 6 °C 3 °C 1025.77 hPa NNE 30 km/h 25 km/h 81% 0 mm 343 W/m2
10:49 6 °C 3 °C 1025.8 hPa NNE 32 km/h 25 km/h 81% 0 mm 341 W/m2
10:54 6 °C 3 °C 1025.84 hPa NNE 30 km/h 26 km/h 81% 0 mm 373 W/m2
10:59 6 °C 3 °C 1025.8 hPa NNE 28 km/h 26 km/h 81% 0 mm 362 W/m2
11:04 6 °C 3 °C 1025.8 hPa NNE 30 km/h 25 km/h 81% 0 mm 371 W/m2
11:09 6 °C 3 °C 1025.77 hPa NNE 31 km/h 26 km/h 81% 0 mm 364 W/m2
11:14 6 °C 3 °C 1025.7 hPa NNE 35 km/h 27 km/h 81% 0 mm 376 W/m2
11:19 6 °C 3 °C 1025.7 hPa NNE 31 km/h 27 km/h 81% 0 mm 404 W/m2
11:24 6 °C 3 °C 1025.67 hPa NNE 34 km/h 27 km/h 81% 0 mm 425 W/m2
11:29 6 °C 3 °C 1025.67 hPa NNE 31 km/h 25 km/h 81% 0 mm 422 W/m2
11:34 6 °C 3 °C 1025.7 hPa NNE 32 km/h 26 km/h 81% 0 mm 399 W/m2
11:39 6 °C 3 °C 1025.7 hPa NNE 35 km/h 32 km/h 81% 0 mm 350 W/m2
11:44 6 °C 3 °C 1025.77 hPa NNE 37 km/h 33 km/h 81% 0 mm 422 W/m2
11:49 6 °C 3 °C 1025.8 hPa NNE 35 km/h 32 km/h 81% 0 mm 450 W/m2
11:54 6 °C 3 °C 1025.77 hPa NNE 36 km/h 30 km/h 81% 0 mm 468 W/m2
11:59 6 °C 3 °C 1025.74 hPa NNE 34 km/h 30 km/h 80% 0 mm 473 W/m2
12:04 6 °C 3 °C 1025.7 hPa NNE 33 km/h 27 km/h 80% 0 mm 475 W/m2
12:09 6 °C 3 °C 1025.67 hPa NNE 33 km/h 27 km/h 79% 0 mm 476 W/m2
12:14 6 °C 3 °C 1025.5 hPa NNE 31 km/h 26 km/h 80% 0 mm 476 W/m2
12:19 6 °C 3 °C 1025.47 hPa NNE 30 km/h 24 km/h 79% 0 mm 482 W/m2
12:24 6 °C 3 °C 1025.4 hPa NNE 30 km/h 24 km/h 79% 0 mm 482 W/m2
12:29 6 °C 3 °C 1025.4 hPa NNE 28 km/h 26 km/h 80% 0 mm 482 W/m2
12:34 6 °C 3 °C 1025.4 hPa NNE 30 km/h 25 km/h 80% 0 mm 448 W/m2
12:39 6 °C 3 °C 1025.43 hPa N 32 km/h 26 km/h 80% 0 mm 476 W/m2
12:44 6 °C 3 °C 1025.43 hPa NNE 36 km/h 29 km/h 80% 0 mm 476 W/m2
12:49 6 °C 3 °C 1025.43 hPa NNE 29 km/h 26 km/h 80% 0 mm 392 W/m2
12:54 6 °C 3 °C 1025.5 hPa NNE 28 km/h 24 km/h 81% 0 mm 476 W/m2
12:59 6 °C 3 °C 1025.47 hPa NNE 33 km/h 25 km/h 81% 0 mm 469 W/m2
13:04 6 °C 3 °C 1025.36 hPa NNE 28 km/h 26 km/h 81% 0 mm 468 W/m2
13:09 6 °C 3 °C 1025.33 hPa NNE 34 km/h 30 km/h 79% 0 mm 469 W/m2
13:14 6 °C 2 °C 1025.2 hPa NNE 33 km/h 29 km/h 79% 0 mm 464 W/m2
13:19 6 °C 2 °C 1025.13 hPa NNE 38 km/h 30 km/h 79% 0 mm 466 W/m2
13:24 6 °C 2 °C 1025.06 hPa NNE 33 km/h 30 km/h 79% 0 mm 461 W/m2
13:29 6 °C 2 °C 1025.03 hPa NNE 35 km/h 31 km/h 79% 0 mm 439 W/m2
13:34 6 °C 2 °C 1024.99 hPa NNE 37 km/h 30 km/h 79% 0 mm 429 W/m2
13:39 6 °C 2 °C 1024.96 hPa NNE 33 km/h 28 km/h 79% 0 mm 411 W/m2
13:44 6 °C 2 °C 1024.86 hPa NNE 33 km/h 29 km/h 79% 0 mm 401 W/m2
13:49 5 °C 2 °C 1024.86 hPa NNE 40 km/h 30 km/h 79% 0 mm 417 W/m2
13:54 5 °C 2 °C 1024.76 hPa NNE 31 km/h 28 km/h 80% 0 mm 410 W/m2
13:59 6 °C 2 °C 1024.72 hPa NNE 32 km/h 27 km/h 80% 0 mm 390 W/m2
14:04 5 °C 2 °C 1024.82 hPa NNE 33 km/h 29 km/h 79% 0 mm 369 W/m2
14:09 5 °C 2 °C 1024.86 hPa NNE 30 km/h 25 km/h 79% 0 mm 385 W/m2
14:14 6 °C 2 °C 1024.79 hPa NNE 31 km/h 29 km/h 79% 0 mm 388 W/m2
14:19 6 °C 2 °C 1024.82 hPa NNE 33 km/h 25 km/h 78% 0 mm 415 W/m2
14:24 6 °C 2 °C 1024.86 hPa NNE 32 km/h 26 km/h 78% 0 mm 431 W/m2
14:29 6 °C 2 °C 1024.92 hPa NNE 27 km/h 24 km/h 78% 0 mm 462 W/m2
14:34 6 °C 2 °C 1024.96 hPa NNE 30 km/h 27 km/h 78% 0 mm 448 W/m2
14:39 6 °C 2 °C 1025.03 hPa NE 29 km/h 27 km/h 78% 0 mm 448 W/m2
14:44 6 °C 2 °C 1025.03 hPa NNE 27 km/h 24 km/h 77% 0 mm 446 W/m2
14:49 6 °C 2 °C 1025.03 hPa NNE 37 km/h 28 km/h 77% 0 mm 445 W/m2
14:54 5 °C 2 °C 1024.99 hPa NNE 33 km/h 25 km/h 77% 0 mm 376 W/m2
14:59 5 °C 2 °C 1024.96 hPa NNE 35 km/h 28 km/h 77% 0 mm 265 W/m2
15:04 5 °C 2 °C 1024.89 hPa NNE 37 km/h 28 km/h 77% 0 mm 283 W/m2
15:09 5 °C 2 °C 1024.79 hPa NNE 38 km/h 32 km/h 77% 0 mm 316 W/m2
15:14 5 °C 2 °C 1024.82 hPa NNE 37 km/h 28 km/h 78% 0 mm 334 W/m2
15:19 5 °C 2 °C 1024.86 hPa NNE 35 km/h 33 km/h 78% 0 mm 320 W/m2
15:24 5 °C 2 °C 1024.92 hPa NNE 40 km/h 32 km/h 78% 0 mm 236 W/m2
15:29 5 °C 2 °C 1024.89 hPa NNE 37 km/h 29 km/h 78% 0 mm 227 W/m2
15:34 5 °C 2 °C 1024.86 hPa NNE 30 km/h 26 km/h 79% 0 mm 250 W/m2
15:39 5 °C 2 °C 1024.86 hPa NNE 33 km/h 29 km/h 79% 0 mm 260 W/m2
15:44 5 °C 2 °C 1024.82 hPa NNE 29 km/h 23 km/h 79% 0 mm 260 W/m2
15:49 5 °C 2 °C 1024.82 hPa NNE 30 km/h 28 km/h 78% 0 mm 223 W/m2
15:54 5 °C 2 °C 1024.89 hPa NNE 34 km/h 28 km/h 78% 0 mm 195 W/m2
15:59 5 °C 2 °C 1024.89 hPa NNE 34 km/h 30 km/h 79% 0 mm 169 W/m2
16:04 5 °C 2 °C 1024.99 hPa NNE 36 km/h 32 km/h 78% 0 mm 174 W/m2
16:09 5 °C 2 °C 1024.99 hPa NNE 30 km/h 25 km/h 78% 0 mm 188 W/m2
16:14 5 °C 2 °C 1024.92 hPa NNE 30 km/h 27 km/h 78% 0 mm 174 W/m2
16:19 5 °C 2 °C 1024.92 hPa NNE 28 km/h 23 km/h 78% 0 mm 171 W/m2
16:24 5 °C 2 °C 1024.92 hPa NNE 29 km/h 26 km/h 78% 0 mm 171 W/m2
16:29 5 °C 2 °C 1024.92 hPa NNE 24 km/h 22 km/h 78% 0 mm 158 W/m2
16:34 5 °C 2 °C 1024.89 hPa NNE 27 km/h 24 km/h 78% 0 mm 144 W/m2
16:39 5 °C 2 °C 1024.86 hPa NNE 28 km/h 22 km/h 78% 0 mm 123 W/m2
16:44 5 °C 2 °C 1024.86 hPa NNE 26 km/h 26 km/h 78% 0 mm 114 W/m2
16:49 5 °C 2 °C 1024.96 hPa NNE 24 km/h 22 km/h 78% 0 mm 113 W/m2
16:54 5 °C 2 °C 1025.03 hPa NNE 24 km/h 19 km/h 79% 0 mm 91 W/m2
16:59 5 °C 2 °C 1025.09 hPa NNE 21 km/h 17 km/h 78% 0 mm 72 W/m2
17:04 5 °C 2 °C 1025.06 hPa NNE 22 km/h 18 km/h 78% 0 mm 67 W/m2
17:09 5 °C 2 °C 1025.06 hPa NNE 21 km/h 18 km/h 77% 0 mm 63 W/m2
17:14 5 °C 2 °C 1025.03 hPa NNE 22 km/h 19 km/h 76% 0 mm 63 W/m2
17:19 5 °C 2 °C 1025.03 hPa NNE 19 km/h 16 km/h 76% 0 mm 58 W/m2
17:24 5 °C 1 °C 1025.03 hPa NNE 20 km/h 19 km/h 76% 0 mm 53 W/m2
17:29 5 °C 1 °C 1025.06 hPa NNE 18 km/h 14 km/h 76% 0 mm 47 W/m2
17:34 5 °C 1 °C 1025.16 hPa NNE 21 km/h 19 km/h 75% 0 mm 42 W/m2
17:39 5 °C 1 °C 1025.23 hPa NNE 19 km/h 18 km/h 76% 0 mm 39 W/m2
17:44 5 °C 1 °C 1025.2 hPa NNE 19 km/h 17 km/h 76% 0 mm 33 W/m2
17:49 5 °C 1 °C 1025.2 hPa NNE 20 km/h 19 km/h 75% 0 mm 30 W/m2
17:54 5 °C 1 °C 1025.2 hPa NNE 21 km/h 19 km/h 75% 0 mm 26 W/m2
17:59 5 °C 1 °C 1025.2 hPa NNE 21 km/h 19 km/h 75% 0 mm 23 W/m2
18:04 5 °C 1 °C 1025.23 hPa NNE 22 km/h 18 km/h 75% 0 mm 19 W/m2
18:09 5 °C 1 °C 1025.2 hPa NNE 20 km/h 18 km/h 75% 0 mm 16 W/m2
18:14 5 °C 1 °C 1025.23 hPa NNE 19 km/h 16 km/h 75% 0 mm 12 W/m2
18:19 5 °C 1 °C 1025.2 hPa NNE 20 km/h 19 km/h 75% 0 mm 11 W/m2
18:24 5 °C 1 °C 1025.26 hPa NNE 19 km/h 15 km/h 75% 0 mm 7 W/m2
18:29 5 °C 1 °C 1025.23 hPa NNE 18 km/h 15 km/h 76% 0 mm 5 W/m2
18:34 5 °C 1 °C 1025.2 hPa NNE 19 km/h 14 km/h 76% 0 mm 0 W/m2
18:39 5 °C 1 °C 1025.23 hPa NNE 17 km/h 14 km/h 76% 0 mm 0 W/m2
18:44 5 °C 1 °C 1025.3 hPa NNE 17 km/h 14 km/h 76% 0 mm 0 W/m2
18:49 5 °C 1 °C 1025.33 hPa NNE 18 km/h 16 km/h 76% 0 mm 0 W/m2
18:54 5 °C 1 °C 1025.33 hPa NNE 18 km/h 16 km/h 76% 0 mm 0 W/m2
18:59 5 °C 1 °C 1025.26 hPa NNE 19 km/h 18 km/h 76% 0 mm 0 W/m2
19:04 5 °C 1 °C 1025.3 hPa NNE 18 km/h 17 km/h 75% 0 mm 0 W/m2
19:09 5 °C 1 °C 1025.3 hPa NNE 18 km/h 15 km/h 75% 0 mm 0 W/m2
19:14 5 °C 1 °C 1025.33 hPa N 16 km/h 16 km/h 76% 0 mm 0 W/m2
19:19 5 °C 1 °C 1025.3 hPa NNE 18 km/h 14 km/h 76% 0 mm 0 W/m2
19:24 5 °C 1 °C 1025.26 hPa NNE 18 km/h 14 km/h 76% 0 mm 0 W/m2
19:29 5 °C 1 °C 1025.26 hPa N 19 km/h 16 km/h 76% 0 mm 0 W/m2
19:34 5 °C 1 °C 1025.33 hPa N 17 km/h 14 km/h 76% 0 mm 0 W/m2
19:39 5 °C 1 °C 1025.4 hPa N 18 km/h 17 km/h 76% 0 mm 0 W/m2
19:44 5 °C 1 °C 1025.47 hPa N 16 km/h 14 km/h 76% 0 mm 0 W/m2
19:49 5 °C 1 °C 1025.53 hPa N 13 km/h 13 km/h 76% 0 mm 0 W/m2
19:54 4 °C 1 °C 1025.6 hPa N 15 km/h 14 km/h 78% 0 mm 0 W/m2
19:59 4 °C 1 °C 1025.6 hPa N 14 km/h 12 km/h 78% 0 mm 0 W/m2
20:04 4 °C 1 °C 1025.67 hPa N 14 km/h 11 km/h 79% 0 mm 0 W/m2
20:09 4 °C 1 °C 1025.67 hPa N 13 km/h 10 km/h 80% 0 mm 0 W/m2
20:14 4 °C 1 °C 1025.74 hPa N 13 km/h 10 km/h 79% 0 mm 0 W/m2
20:19 4 °C 1 °C 1025.74 hPa N 16 km/h 14 km/h 80% 0 mm 0 W/m2
20:24 4 °C 1 °C 1025.74 hPa N 18 km/h 17 km/h 80% 0 mm 0 W/m2
20:29 4 °C 1 °C 1025.77 hPa N 20 km/h 17 km/h 79% 0 mm 0 W/m2
20:34 4 °C 1 °C 1025.74 hPa N 20 km/h 18 km/h 78% 0 mm 0 W/m2
20:39 4 °C 1 °C 1025.77 hPa N 21 km/h 19 km/h 78% 0 mm 0 W/m2
20:44 4 °C 1 °C 1025.74 hPa N 20 km/h 18 km/h 78% 0 mm 0 W/m2
20:49 4 °C 0 °C 1025.74 hPa N 20 km/h 18 km/h 77% 0 mm 0 W/m2
20:54 4 °C 0 °C 1025.74 hPa N 20 km/h 19 km/h 76% 0 mm 0 W/m2
20:59 4 °C 0 °C 1025.74 hPa N 22 km/h 20 km/h 75% 0 mm 0 W/m2
21:04 4 °C 0 °C 1025.64 hPa N 20 km/h 19 km/h 74% 0 mm 0 W/m2
21:09 4 °C 0 °C 1025.64 hPa N 19 km/h 18 km/h 74% 0 mm 0 W/m2
21:14 4 °C 0 °C 1025.7 hPa N 18 km/h 17 km/h 74% 0 mm 0 W/m2
21:19 4 °C 0 °C 1025.7 hPa N 18 km/h 15 km/h 75% 0 mm 0 W/m2
21:24 4 °C 0 °C 1025.67 hPa N 16 km/h 14 km/h 75% 0 mm 0 W/m2
21:29 4 °C 0 °C 1025.67 hPa N 15 km/h 13 km/h 76% 0 mm 0 W/m2
21:34 4 °C 0 °C 1025.57 hPa NNE 13 km/h 11 km/h 76% 0 mm 0 W/m2
21:39 4 °C 0 °C 1025.53 hPa N 11 km/h 10 km/h 77% 0 mm 0 W/m2
21:44 4 °C 0 °C 1025.47 hPa N 12 km/h 11 km/h 78% 0 mm 0 W/m2
21:49 4 °C 0 °C 1025.47 hPa N 13 km/h 12 km/h 78% 0 mm 0 W/m2
21:54 4 °C 0 °C 1025.47 hPa N 13 km/h 11 km/h 78% 0 mm 0 W/m2
21:59 4 °C 0 °C 1025.4 hPa N 13 km/h 12 km/h 79% 0 mm 0 W/m2
22:04 4 °C 0 °C 1025.4 hPa N 15 km/h 14 km/h 79% 0 mm 0 W/m2
22:09 4 °C 0 °C 1025.43 hPa N 16 km/h 13 km/h 78% 0 mm 0 W/m2
22:14 3 °C 0 °C 1025.5 hPa N 17 km/h 15 km/h 78% 0 mm 0 W/m2
22:19 3 °C 0 °C 1025.5 hPa N 20 km/h 19 km/h 78% 0 mm 0 W/m2
22:24 3 °C 0 °C 1025.53 hPa N 22 km/h 19 km/h 77% 0 mm 0 W/m2
22:29 3 °C 0 °C 1025.5 hPa N 21 km/h 19 km/h 77% 0 mm 0 W/m2
22:34 3 °C 0 °C 1025.43 hPa N 21 km/h 19 km/h 77% 0 mm 0 W/m2
22:39 3 °C 0 °C 1025.36 hPa N 20 km/h 19 km/h 77% 0 mm 0 W/m2
22:44 3 °C 0 °C 1025.33 hPa N 21 km/h 19 km/h 78% 0 mm 0 W/m2
22:49 3 °C 0 °C 1025.33 hPa N 23 km/h 21 km/h 78% 0 mm 0 W/m2
22:54 3 °C 0 °C 1025.36 hPa N 21 km/h 20 km/h 78% 0 mm 0 W/m2
22:59 3 °C 0 °C 1025.33 hPa N 20 km/h 19 km/h 78% 0 mm 0 W/m2
23:04 3 °C 0 °C 1025.33 hPa N 19 km/h 17 km/h 79% 0 mm 0 W/m2
23:09 3 °C 0 °C 1025.33 hPa N 18 km/h 16 km/h 79% 0 mm 0 W/m2
23:14 3 °C 0 °C 1025.33 hPa N 17 km/h 15 km/h 79% 0 mm 0 W/m2
23:19 3 °C 0 °C 1025.26 hPa N 14 km/h 12 km/h 79% 0 mm 0 W/m2
23:24 3 °C 0 °C 1025.23 hPa N 14 km/h 13 km/h 79% 0 mm 0 W/m2
23:29 3 °C 0 °C 1025.23 hPa N 14 km/h 13 km/h 80% 0 mm 0 W/m2
23:34 3 °C 0 °C 1025.2 hPa N 18 km/h 16 km/h 81% 0 mm 0 W/m2
23:39 3 °C 0 °C 1025.16 hPa N 19 km/h 17 km/h 81% 0 mm 0 W/m2
23:44 3 °C 0 °C 1025.16 hPa N 17 km/h 15 km/h 80% 0 mm 0 W/m2
23:49 3 °C 0 °C 1025.16 hPa N 17 km/h 14 km/h 80% 0 mm 0 W/m2
23:54 3 °C 0 °C 1025.16 hPa N 16 km/h 14 km/h 80% 0 mm 0 W/m2
23:59 3 °C 0 °C 1025.16 hPa N 18 km/h 16 km/h 80% 0 mm 0 W/m2
Compliments of Weather Underground - 2 mb